Time;durP1;ratioP1;P1;durP2;ratioP2;P2;SDS_P1;SDS_P2;PMS_P1;PMS_P2;Temp;Humidity;BMP_temperature;BMP_pressure;BME280_temperature;BME280_humidity;BME280_pressure;Samples;Min_cycle;Max_cycle;Signal;HPM_P1;HPM_P2
2022/04/23 00:01:10;;;;;;;19.12;11.55;;;;;;;9.21;76.93;99121.98;1778785;79;21118;-76
2022/04/23 00:03:37;;;;;;;16.70;10.85;;;;;;;9.20;76.95;99123.92;1752984;79;22212;-76
2022/04/23 00:06:04;;;;;;;13.10;9.55;;;;;;;9.20;76.90;99121.17;1766638;81;21003;-77
2022/04/23 00:08:34;;;;;;;15.20;11.08;;;;;;;9.21;76.75;99119.23;1787262;79;21034;-77
2022/04/23 00:11:03;;;;;;;15.70;10.80;;;;;;;9.16;76.65;99103.69;1776087;79;21066;-76
2022/04/23 00:13:30;;;;;;;14.25;10.35;;;;;;;9.12;76.69;99099.42;1773260;79;21159;-75
2022/04/23 00:15:58;;;;;;;14.15;10.20;;;;;;;9.11;76.67;99099.16;1782353;79;21115;-77
2022/04/23 00:18:26;;;;;;;15.45;9.78;;;;;;;9.10;76.57;99101.67;1760564;79;21549;-75
2022/04/23 00:20:55;;;;;;;12.03;8.80;;;;;;;9.08;76.47;99097.61;1780028;79;21586;-73
2022/04/23 00:23:25;;;;;;;15.68;9.28;;;;;;;9.06;76.47;99102.05;1777788;79;21465;-76
2022/04/23 00:25:55;;;;;;;14.05;10.40;;;;;;;9.05;76.50;99100.45;1762023;79;21046;-76
2022/04/23 00:28:24;;;;;;;14.00;9.48;;;;;;;9.03;76.55;99095.02;1778030;79;21126;-74
2022/04/23 00:30:52;;;;;;;14.43;10.72;;;;;;;8.99;76.79;99089.38;1779434;79;21070;-74
2022/04/23 00:33:22;;;;;;;12.13;8.83;;;;;;;8.98;77.09;99082.23;1775818;79;21078;-73
2022/04/23 00:35:51;;;;;;;13.95;9.80;;;;;;;8.96;77.20;99082.56;1741550;79;21069;-73
2022/04/23 00:38:18;;;;;;;14.73;9.45;;;;;;;8.97;77.23;99085.55;1761137;79;21012;-75
2022/04/23 00:40:46;;;;;;;14.47;10.08;;;;;;;8.96;77.26;99088.61;1777434;79;21258;-73
2022/04/23 00:43:30;;;;;;;16.87;9.65;;;;;;;8.97;77.36;99076.52;1776986;79;21437;-72
2022/04/23 00:45:58;;;;;;;16.20;10.10;;;;;;;8.95;77.38;99068.59;1737462;81;21039;-75
2022/04/23 00:48:29;;;;;;;12.25;9.35;;;;;;;8.93;77.45;99059.84;1786743;79;21027;-76
2022/04/23 00:51:00;;;;;;;15.83;9.65;;;;;;;8.89;77.58;99052.81;1776509;79;21035;-75
2022/04/23 00:53:30;;;;;;;;;;;;;;;8.88;77.72;99058.63;1780647;79;21838;-73
2022/04/23 00:55:59;;;;;;;12.15;9.15;;;;;;;8.85;77.85;99060.06;1753844;79;20480;-76
2022/04/23 00:58:26;;;;;;;13.62;8.88;;;;;;;8.84;78.03;99063.13;1742266;81;21090;-75
2022/04/23 01:00:56;;;;;;;10.72;7.58;;;;;;;8.82;78.24;99065.41;1740286;81;21014;-74
2022/04/23 01:03:24;;;;;;;10.10;7.87;;;;;;;8.81;78.31;99062.40;1783021;79;21682;-75
2022/04/23 01:05:52;;;;;;;12.68;8.13;;;;;;;8.83;78.41;99064.27;1785049;79;21274;-73
2022/04/23 01:08:21;;;;;;;11.80;7.95;;;;;;;8.80;78.35;99056.12;1775942;79;21054;-73
2022/04/23 01:10:49;;;;;;;9.93;7.58;;;;;;;8.78;78.47;99049.31;1784786;79;21023;-73
2022/04/23 01:13:21;;;;;;;10.65;8.20;;;;;;;8.74;78.58;99054.63;1777861;79;21020;-75
2022/04/23 01:16:07;;;;;;;12.30;7.95;;;;;;;8.70;78.71;99047.58;1742198;81;21041;-76
2022/04/23 01:18:36;;;;;;;13.60;7.90;;;;;;;8.72;78.87;99047.27;1781349;79;21791;-76
2022/04/23 01:21:04;;;;;;;9.73;7.42;;;;;;;8.73;78.88;99038.73;1780181;79;21063;-74
2022/04/23 01:23:34;;;;;;;10.58;7.53;;;;;;;8.72;78.85;99037.65;1741862;81;21617;-75
2022/04/23 01:26:03;;;;;;;10.68;7.80;;;;;;;8.68;78.88;99032.56;1783458;79;21015;-74
2022/04/23 01:28:34;;;;;;;12.73;8.38;;;;;;;8.67;78.91;99037.80;1778725;79;21020;-74
2022/04/23 01:31:05;;;;;;;11.00;6.95;;;;;;;8.63;78.90;99030.20;1751463;81;21030;-76
2022/04/23 01:33:33;;;;;;;10.63;7.22;;;;;;;8.59;78.89;99032.53;1784846;79;20964;-75
2022/04/23 01:36:00;;;;;;;8.63;6.78;;;;;;;8.57;79.02;99023.80;1781590;79;20976;-75
2022/04/23 01:38:32;;;;;;;7.87;6.35;;;;;;;8.56;79.04;99030.43;1742345;79;21099;-75
2022/04/23 01:41:00;;;;;;;7.42;5.53;;;;;;;8.52;79.08;99028.30;1739007;81;22120;-75
2022/04/23 01:43:31;;;;;;;10.38;6.70;;;;;;;8.49;79.13;99024.82;1732120;81;21028;-76
2022/04/23 01:45:57;;;;;;;7.67;5.92;;;;;;;8.47;79.10;99026.25;1753856;80;21081;-76
2022/04/23 01:48:31;;;;;;;10.13;5.92;;;;;;;8.46;79.19;99035.04;1767522;80;21000;-76
2022/04/23 01:50:59;;;;;;;7.40;5.95;;;;;;;8.41;79.22;99029.69;1751875;80;21085;-76
2022/04/23 01:53:35;;;;;;;7.62;6.30;;;;;;;8.39;79.37;99026.48;1752916;80;21053;-77
2022/04/23 01:56:04;;;;;;;7.37;5.67;;;;;;;8.39;79.42;99022.36;1726341;81;21250;-75
2022/04/23 01:58:34;;;;;;;7.78;6.25;;;;;;;8.37;79.50;99019.94;1724404;81;21004;-74
2022/04/23 02:01:00;;;;;;;9.43;5.87;;;;;;;8.34;79.64;99020.55;1729864;81;21572;-74
2022/04/23 02:03:29;;;;;;;8.45;5.95;;;;;;;8.35;79.81;99020.81;1728758;81;21060;-75
2022/04/23 02:06:00;;;;;;;9.38;5.60;;;;;;;8.37;79.92;99022.68;1728840;81;21456;-78
2022/04/23 02:08:30;;;;;;;10.45;5.72;;;;;;;8.42;79.84;99030.51;1754849;80;21615;-73
2022/04/23 02:10:59;;;;;;;8.65;6.15;;;;;;;8.39;79.71;99023.73;1728800;81;21054;-74
2022/04/23 02:13:27;;;;;;;6.80;5.40;;;;;;;8.38;79.82;99014.67;1755300;80;21023;-75
2022/04/23 02:15:55;;;;;;;8.68;6.67;;;;;;;8.40;79.88;99013.80;1753332;80;21534;-75
2022/04/23 02:18:26;;;;;;;7.20;6.10;;;;;;;8.39;79.89;99012.16;1742200;81;21056;-74
2022/04/23 02:20:53;;;;;;;10.05;6.62;;;;;;;8.35;79.90;99007.64;1760190;80;21994;-74
2022/04/23 02:23:21;;;;;;;11.53;6.17;;;;;;;8.32;80.15;99019.25;1749849;80;22294;-73
2022/04/23 02:25:47;;;;;;;7.70;6.75;;;;;;;8.25;80.28;99027.39;1752913;80;21487;-75
2022/04/23 02:28:17;;;;;;;8.35;6.22;;;;;;;8.22;80.59;99022.52;1758139;80;21024;-73
2022/04/23 02:30:44;;;;;;;8.53;6.25;;;;;;;8.20;80.81;99022.59;1757685;79;21024;-74
2022/04/23 02:33:14;;;;;;;6.40;5.35;;;;;;;8.17;81.09;99022.68;1757233;80;21312;-76
2022/04/23 02:35:44;;;;;;;8.85;5.83;;;;;;;8.16;81.35;99030.65;1726257;82;20995;-73
2022/04/23 02:38:15;;;;;;;7.20;5.58;;;;;;;8.15;81.57;99024.92;1732444;80;21032;-75
2022/04/23 02:40:43;;;;;;;10.82;5.95;;;;;;;8.13;81.68;99021.68;1781621;80;21014;-73
2022/04/23 02:43:13;;;;;;;8.88;6.12;;;;;;;8.06;81.87;99026.80;1792480;78;20998;-74
2022/04/23 02:45:41;;;;;;;10.08;5.80;;;;;;;8.00;82.11;99015.96;1757723;80;21144;-74
2022/04/23 02:48:10;;;;;;;6.85;5.62;;;;;;;7.96;82.35;99023.22;1764665;79;21064;-73
2022/04/23 02:50:40;;;;;;;8.28;5.28;;;;;;;7.92;82.62;99026.33;1772981;79;21074;-74
2022/04/23 02:53:10;;;;;;;7.80;6.22;;;;;;;7.94;82.91;99033.69;1799878;78;21468;-74
2022/04/23 02:55:41;;;;;;;8.13;5.80;;;;;;;7.93;82.96;99025.22;1798741;78;21433;-74
2022/04/23 02:58:10;;;;;;;7.95;5.85;;;;;;;7.94;83.05;99021.34;1783201;80;21232;-75
2022/04/23 03:00:41;;;;;;;9.30;5.85;;;;;;;7.93;83.19;99015.63;1776486;80;21003;-74
2022/04/23 03:03:15;;;;;;;8.58;5.87;;;;;;;7.92;83.23;99020.84;1781204;80;21047;-75
2022/04/23 03:05:42;;;;;;;8.55;6.08;;;;;;;7.90;83.37;99023.91;1786708;78;21003;-75
2022/04/23 03:08:14;;;;;;;14.73;6.95;;;;;;;7.90;83.46;99023.91;1799359;78;21453;-76
2022/04/23 03:10:44;;;;;;;8.23;6.00;;;;;;;7.90;83.52;99022.53;1781338;79;20997;-75
2022/04/23 03:13:11;;;;;;;7.67;6.17;;;;;;;7.89;83.51;99031.08;1784658;79;21515;-73
2022/04/23 03:15:44;;;;;;;12.37;6.28;;;;;;;7.88;83.61;99025.36;1781446;79;21485;-76
2022/04/23 03:18:13;;;;;;;9.88;6.72;;;;;;;7.88;83.64;99020.66;1778348;79;21063;-74
2022/04/23 03:20:43;;;;;;;8.50;6.25;;;;;;;7.83;83.71;99010.40;1778312;79;21085;-74
2022/04/23 03:23:13;;;;;;;9.88;5.65;;;;;;;7.82;83.82;99016.98;1774536;79;21111;-73
2022/04/23 03:25:41;;;;;;;7.97;6.20;;;;;;;7.79;83.93;99008.29;1746153;81;21543;-74
2022/04/23 03:28:13;;;;;;;8.58;5.75;;;;;;;7.75;83.96;99016.06;1782722;79;21042;-74
2022/04/23 03:30:41;;;;;;;7.47;5.17;;;;;;;7.75;84.16;99012.77;1776334;78;21024;-74
2022/04/23 03:33:12;;;;;;;8.83;5.67;;;;;;;7.75;84.13;99016.06;1777688;79;21062;-74
2022/04/23 03:35:38;;;;;;;10.45;6.28;;;;;;;7.70;84.18;99010.16;1782363;79;21699;-74
2022/04/23 03:38:06;;;;;;;9.18;6.33;;;;;;;7.70;84.38;99014.27;1766577;79;20984;-73
2022/04/23 03:40:34;;;;;;;9.05;6.37;;;;;;;7.71;84.47;99011.77;1751728;81;21042;-75
2022/04/23 03:43:03;;;;;;;10.48;6.30;;;;;;;7.71;84.47;99010.39;1745216;81;21543;-73
2022/04/23 03:45:33;;;;;;;9.73;5.75;;;;;;;7.71;84.56;99010.39;1761577;81;21010;-73
2022/04/23 03:48:01;;;;;;;11.28;6.75;;;;;;;7.73;84.51;99010.89;1777253;79;21509;-73
2022/04/23 03:50:31;;;;;;;10.72;6.08;;;;;;;7.71;84.47;99006.86;1769187;79;21067;-75
2022/04/23 03:52:59;;;;;;;9.33;6.37;;;;;;;7.69;84.63;98996.20;1760928;79;21063;-74
2022/04/23 03:55:30;;;;;;;8.10;5.78;;;;;;;7.69;84.75;99002.24;1783158;79;21007;-73
2022/04/23 03:58:07;;;;;;;8.43;5.97;;;;;;;7.65;84.76;98996.57;1734415;81;21023;-74
2022/04/23 04:00:35;;;;;;;8.83;6.60;;;;;;;7.64;84.86;99003.19;1781284;79;21087;-76
2022/04/23 04:03:03;;;;;;;11.60;6.60;;;;;;;7.62;85.00;99004.88;1740546;81;21170;-75
2022/04/23 04:05:36;;;;;;;12.20;6.28;;;;;;;7.64;85.13;98999.87;1738823;81;21086;-75
2022/04/23 04:08:05;;;;;;;10.23;6.70;;;;;;;7.68;85.17;99002.80;1737427;81;21043;-74
2022/04/23 04:10:31;;;;;;;12.37;6.85;;;;;;;7.69;85.10;98996.76;1741829;81;21490;-74
2022/04/23 04:13:02;;;;;;;10.00;5.87;;;;;;;7.71;85.18;99005.48;1753435;81;20971;-73
2022/04/23 04:15:35;;;;;;;10.45;6.12;;;;;;;7.72;85.20;99005.73;1743770;81;21074;-74
2022/04/23 04:18:08;;;;;;;8.05;6.10;;;;;;;7.73;85.18;99005.99;1721095;81;21099;-74
2022/04/23 04:20:36;;;;;;;8.55;6.17;;;;;;;7.73;85.24;99001.30;1784133;79;21417;-74
2022/04/23 04:23:05;;;;;;;9.18;5.97;;;;;;;7.77;85.41;98988.59;1767515;79;21603;-72
2022/04/23 04:25:36;;;;;;;8.68;6.37;;;;;;;7.82;85.48;98984.89;1754014;81;21108;-73
2022/04/23 04:28:05;;;;;;;9.65;5.92;;;;;;;7.89;85.48;98987.19;1743776;81;21042;-73
2022/04/23 04:33:22;;;;;;;7.37;5.35;;;;;;;7.96;85.12;98980.70;1749993;81;21040;-75
2022/04/23 04:35:50;;;;;;;9.43;5.90;;;;;;;7.98;84.95;98985.86;1753772;81;21102;-74
2022/04/23 04:38:18;;;;;;;10.10;5.72;;;;;;;8.00;84.99;98984.41;1748578;79;21747;-73
2022/04/23 04:40:48;;;;;;;8.85;5.45;;;;;;;8.04;84.89;98985.41;1734563;81;21522;-74
2022/04/23 04:43:16;;;;;;;10.18;5.97;;;;;;;8.08;84.56;98980.10;1713734;82;21150;-75
2022/04/23 04:45:44;;;;;;;9.48;6.10;;;;;;;8.12;84.32;98987.14;1741838;81;20993;-74
2022/04/23 04:48:12;;;;;;;11.12;5.30;;;;;;;8.12;84.22;98984.40;1738752;81;21484;-75
2022/04/23 04:50:38;;;;;;;7.62;6.50;;;;;;;8.16;84.30;98979.33;1746365;81;21825;-74
2022/04/23 04:53:05;;;;;;;9.85;6.00;;;;;;;8.23;84.07;98986.28;1745267;81;21036;-75
2022/04/23 04:55:36;;;;;;;11.22;6.30;;;;;;;8.24;83.86;98977.73;1744287;81;21012;-73
2022/04/23 04:58:06;;;;;;;9.83;6.45;;;;;;;8.28;83.84;98980.09;1745061;81;21040;-73
2022/04/23 05:00:35;;;;;;;9.25;6.35;;;;;;;8.35;83.82;98977.44;1738780;81;21661;-72
2022/04/23 05:03:04;;;;;;;8.63;6.28;;;;;;;8.38;83.53;98972.68;1744289;81;21055;-73
2022/04/23 05:05:31;;;;;;;9.95;6.92;;;;;;;8.40;83.47;98987.72;1738933;81;20979;-73
2022/04/23 05:07:59;;;;;;;10.68;7.40;;;;;;;8.45;83.43;98991.43;1740817;81;21035;-72
2022/04/23 05:10:27;;;;;;;9.95;6.83;;;;;;;8.50;83.37;98987.98;1737807;81;21030;-74
2022/04/23 05:12:57;;;;;;;13.30;7.87;;;;;;;8.57;83.21;98986.17;1735361;81;21077;-76
2022/04/23 05:15:24;;;;;;;10.68;6.97;;;;;;;8.58;82.93;98986.99;1741204;81;21181;-75
2022/04/23 05:17:51;;;;;;;8.80;6.12;;;;;;;8.59;83.01;98980.36;1766867;79;21075;-76
2022/04/23 05:20:18;;;;;;;12.82;7.05;;;;;;;8.63;83.06;98982.14;1740389;81;21030;-74
2022/04/23 05:22:47;;;;;;;9.28;6.45;;;;;;;8.68;82.90;98974.33;1737140;81;21109;-74
2022/04/23 05:25:19;;;;;;;10.88;6.92;;;;;;;8.73;82.76;98973.36;1738287;81;21273;-75
2022/04/23 05:27:48;;;;;;;10.28;7.10;;;;;;;8.78;82.65;98976.52;1737053;81;21047;-73
2022/04/23 05:30:16;;;;;;;9.90;7.08;;;;;;;8.82;82.42;98975.54;1740231;79;21022;-72
2022/04/23 05:32:47;;;;;;;13.13;8.00;;;;;;;8.84;82.24;98968.34;1737543;81;21024;-74
2022/04/23 05:35:13;;;;;;;10.95;7.22;;;;;;;8.85;82.21;98960.37;1743362;81;20997;-73
2022/04/23 05:37:42;;;;;;;10.65;7.17;;;;;;;8.87;82.00;98960.86;1736848;81;21103;-74
2022/04/23 05:40:09;;;;;;;9.80;6.87;;;;;;;8.86;81.98;98955.11;1773620;79;21817;-75
2022/04/23 05:42:39;;;;;;;12.03;6.92;;;;;;;8.88;82.04;98956.97;1770129;79;20980;-75
2022/04/23 05:45:07;;;;;;;13.30;7.55;;;;;;;8.89;82.15;98958.58;1776108;79;21516;-73
2022/04/23 05:47:34;;;;;;;9.98;6.90;;;;;;;8.95;82.17;98960.61;1774803;80;21022;-73
2022/04/23 05:50:01;;;;;;;18.45;7.33;;;;;;;8.99;81.94;98958.84;1785788;79;21021;-73
2022/04/23 05:52:28;;;;;;;12.75;6.78;;;;;;;9.03;81.97;98950.18;1784152;79;21801;-74
2022/04/23 05:54:54;;;;;;;14.30;7.58;;;;;;;9.10;82.13;98949.69;1787193;79;20977;-72
2022/04/23 05:57:24;;;;;;;13.60;7.67;;;;;;;9.18;81.96;98946.12;1782532;79;21051;-73
2022/04/23 05:59:56;;;;;;;10.95;6.45;;;;;;;9.27;81.85;98948.87;1777413;79;21038;-75
2022/04/23 06:02:24;;;;;;;10.00;7.55;;;;;;;9.34;81.61;98949.75;1769310;79;21038;-73
2022/04/23 06:04:52;;;;;;;10.55;7.30;;;;;;;9.42;81.43;98945.36;1776414;79;21016;-75
2022/04/23 06:07:22;;;;;;;11.63;7.20;;;;;;;9.47;81.13;98947.38;1771995;79;21078;-73
2022/04/23 06:09:51;;;;;;;19.60;8.23;;;;;;;9.57;81.20;98946.22;1785144;79;21568;-73
2022/04/23 06:12:17;;;;;;;12.70;6.83;;;;;;;9.67;81.00;98949.77;1784343;79;21288;-72
2022/04/23 06:14:45;;;;;;;14.13;7.95;;;;;;;9.74;80.71;98939.87;1783275;79;21014;-74
2022/04/23 06:17:12;;;;;;;12.50;7.62;;;;;;;9.80;80.27;98937.75;1784848;79;21171;-73
2022/04/23 06:19:41;;;;;;;12.45;7.62;;;;;;;9.84;79.80;98934.56;1776161;79;21019;-75
2022/04/23 06:22:08;;;;;;;10.13;7.83;;;;;;;9.88;79.83;98934.72;1773629;80;21034;-75
2022/04/23 06:24:35;;;;;;;12.65;8.08;;;;;;;9.95;79.65;98939.16;1790458;79;21068;-73
2022/04/23 06:27:07;;;;;;;13.40;7.58;;;;;;;9.98;79.13;98932.98;1775125;79;21114;-72
2022/04/23 06:29:36;;;;;;;13.45;7.95;;;;;;;10.00;79.01;98923.02;1769774;79;21149;-73
2022/04/23 06:32:05;;;;;;;11.80;8.15;;;;;;;10.04;78.61;98926.73;1778802;79;21071;-74
2022/04/23 06:34:40;;;;;;;11.25;6.87;;;;;;;10.11;78.50;98927.59;1753700;81;21055;-72
2022/04/23 06:37:09;;;;;;;9.90;6.83;;;;;;;10.20;78.45;98917.33;1768412;80;21007;-73
2022/04/23 06:39:37;;;;;;;11.00;7.05;;;;;;;10.31;78.12;98916.95;1785770;79;21011;-73
2022/04/23 06:42:04;;;;;;;13.10;7.35;;;;;;;10.40;77.63;98915.52;1801256;79;21136;-74
2022/04/23 06:44:34;;;;;;;14.95;8.18;;;;;;;10.46;77.18;98919.69;1772824;80;20999;-76
2022/04/23 06:47:05;;;;;;;9.78;7.92;;;;;;;10.50;76.73;98925.37;1773342;80;21029;-73
2022/04/23 06:49:34;;;;;;;11.60;7.47;;;;;;;10.51;76.71;98922.87;1715318;80;20985;-74
2022/04/23 06:52:01;;;;;;;11.88;7.97;;;;;;;10.54;76.92;98915.31;1759594;80;21103;-73
2022/04/23 06:54:28;;;;;;;10.60;7.62;;;;;;;10.63;76.92;98908.37;1789327;78;21173;-74
2022/04/23 06:56:55;;;;;;;12.07;6.72;;;;;;;10.73;76.74;98907.94;1791902;78;21014;-74
2022/04/23 06:59:22;;;;;;;9.65;6.80;;;;;;;10.83;76.41;98913.05;1791063;78;21570;-75
2022/04/23 07:01:49;;;;;;;10.32;7.28;;;;;;;10.86;75.05;98915.72;1762458;80;21066;-76
2022/04/23 07:04:20;;;;;;;11.65;6.70;;;;;;;10.87;75.06;98906.86;1755637;80;21095;-74
2022/04/23 07:06:47;;;;;;;9.68;6.85;;;;;;;10.97;75.29;98907.83;1786225;78;21498;-73
2022/04/23 07:09:15;;;;;;;9.95;6.33;;;;;;;11.12;75.01;98900.09;1785314;78;21068;-73
2022/04/23 07:11:42;;;;;;;11.95;7.95;;;;;;;11.29;74.87;98905.42;1788761;78;21514;-72
2022/04/23 07:14:10;;;;;;;8.15;6.85;;;;;;;11.49;74.80;98900.20;1783318;78;21114;-75
2022/04/23 07:16:39;;;;;;;16.50;7.95;;;;;;;11.72;74.48;98900.36;1784469;78;21625;-74
2022/04/23 07:22:10;;;;;;;10.63;6.80;;;;;;;12.09;72.87;98892.12;1778579;78;21088;-76
2022/04/23 07:24:37;;;;;;;8.78;6.62;;;;;;;12.27;71.35;98893.25;1787145;78;21028;-74
2022/04/23 07:27:04;;;;;;;11.90;7.95;;;;;;;12.37;71.06;98888.63;1788549;78;21116;-75
2022/04/23 07:29:33;;;;;;;12.85;6.90;;;;;;;12.49;70.27;98894.72;1784531;78;21101;-75
2022/04/23 07:32:06;;;;;;;8.45;6.65;;;;;;;12.58;69.24;98886.30;1798108;79;21138;-73
2022/04/23 07:37:34;;;;;;;9.28;6.58;;;;;;;12.73;67.63;98881.99;1754175;80;21043;-76
2022/04/23 07:40:07;;;;;;;9.93;5.90;;;;;;;12.75;67.48;98879.69;1761754;80;21046;-76
2022/04/23 07:42:34;;;;;;;9.38;5.95;;;;;;;12.86;66.95;98879.98;1784703;78;21025;-73
2022/04/23 07:45:04;;;;;;;8.83;6.80;;;;;;;12.96;66.65;98877.88;1765534;80;21155;-74
2022/04/23 07:47:31;;;;;;;8.80;6.83;;;;;;;13.02;65.57;98872.32;1768457;80;21035;-73
2022/04/23 07:49:58;;;;;;;15.45;9.18;;;;;;;13.10;65.56;98870.57;1766083;80;21242;-72
2022/04/23 07:52:28;;;;;;;13.72;8.40;;;;;;;13.20;65.46;98868.68;1784269;78;21121;-72
2022/04/23 07:54:54;;;;;;;12.43;8.73;;;;;;;13.24;64.55;98863.22;1790144;78;20951;-75
2022/04/23 07:57:26;;;;;;;11.35;7.00;;;;;;;13.27;64.72;98859.77;1757692;80;21036;-75
2022/04/23 07:59:56;;;;;;;11.55;7.62;;;;;;;13.37;65.22;98849.54;1760647;80;21055;-73
2022/04/23 08:02:52;;;;;;;14.83;9.05;;;;;;;13.52;64.57;98854.10;1785515;78;21081;-76
2022/04/23 08:09:20;;;;;;;10.58;6.45;;;;;;;13.69;63.01;98849.36;1786582;78;21052;-76
2022/04/23 08:11:55;;;;;;;9.05;6.10;;;;;;;13.70;61.14;98855.14;1777847;79;21515;-75
2022/04/23 08:14:22;;;;;;;16.57;10.40;;;;;;;13.69;59.39;98841.06;1748691;80;21534;-75
2022/04/23 08:16:50;;;;;;;7.35;5.80;;;;;;;13.70;60.57;98844.07;1773846;79;21111;-75
2022/04/23 08:19:23;;;;;;;9.93;7.10;;;;;;;13.81;60.82;98837.39;1766106;79;21069;-72
2022/04/23 08:21:54;;;;;;;11.33;6.53;;;;;;;13.94;60.38;98832.55;1795166;79;21023;-72
2022/04/23 08:24:22;;;;;;;11.15;6.58;;;;;;;14.03;59.88;98830.39;1786257;79;22103;-72
2022/04/23 08:26:50;;;;;;;10.63;6.95;;;;;;;14.02;59.42;98819.11;1782408;79;21063;-71
2022/04/23 08:32:03;;;;;;;7.87;5.80;;;;;;;13.98;57.97;98832.88;1681259;80;21038;-73
2022/04/23 08:34:32;;;;;;;9.80;5.62;;;;;;;14.00;58.80;98819.44;1764154;80;21008;-72
2022/04/23 08:36:58;;;;;;;6.87;5.00;;;;;;;14.10;59.59;98822.83;1768339;80;21835;-71
2022/04/23 08:39:28;;;;;;;7.75;5.58;;;;;;;14.27;59.30;98823.59;1791408;78;21011;-71
2022/04/23 08:41:55;;;;;;;10.90;6.80;;;;;;;14.40;58.51;98816.75;1787024;80;21030;-75
2022/04/23 08:44:22;;;;;;;7.75;5.12;;;;;;;14.46;57.77;98804.23;1752545;81;20976;-72
2022/04/23 08:46:51;;;;;;;5.92;4.50;;;;;;;14.50;57.39;98811.20;1755202;81;21518;-73
2022/04/23 08:49:20;;;;;;;8.90;5.65;;;;;;;14.58;57.81;98801.08;1743461;81;21352;-73
2022/04/23 08:51:53;;;;;;;8.98;6.00;;;;;;;14.69;57.34;98807.64;1747074;81;21023;-74
2022/04/23 08:54:23;;;;;;;12.93;6.40;;;;;;;14.74;56.41;98799.60;1754997;81;21487;-73
2022/04/23 08:56:52;;;;;;;18.27;10.23;;;;;;;14.83;56.09;98805.77;1748865;81;21050;-70
2022/04/23 08:59:22;;;;;;;26.07;15.05;;;;;;;14.89;55.69;98802.13;1787741;80;21030;-72
2022/04/23 09:01:49;;;;;;;14.95;9.53;;;;;;;14.99;55.23;98787.42;1754337;81;21153;-73
2022/04/23 09:04:18;;;;;;;11.25;6.60;;;;;;;15.08;55.14;98788.78;1753319;81;21455;-71
2022/04/23 09:06:49;;;;;;;6.42;5.00;;;;;;;15.10;54.05;98793.96;1752548;81;21000;-72
2022/04/23 09:09:24;;;;;;;10.78;5.17;;;;;;;15.05;54.11;98792.30;1727046;81;21059;-73
2022/04/23 09:11:56;;;;;;;4.85;4.25;;;;;;;15.07;53.86;98784.99;1722137;81;21600;-74
2022/04/23 09:14:51;;;;;;;5.70;4.35;;;;;;;15.08;53.54;98787.39;1750385;81;21131;-72
2022/04/23 09:25:49;;;;;;;7.40;4.97;;;;;;;14.80;53.50;98769.07;1766961;80;21100;-74
2022/04/23 09:28:20;;;;;;;6.85;4.60;;;;;;;14.78;53.64;98764.44;1762567;80;21083;-74
2022/04/23 09:30:59;;;;;;;9.73;4.45;;;;;;;14.74;54.05;98763.55;1764493;80;21017;-76
2022/04/23 09:33:45;;;;;;;6.72;4.67;;;;;;;14.75;54.38;98765.18;1744569;81;21701;-78
2022/04/23 09:36:26;;;;;;;8.83;4.83;;;;;;;14.90;54.71;98755.19;1746266;80;21488;-74
2022/04/23 09:39:03;;;;;;;;;;;;;;;15.13;54.93;98751.60;1746511;81;21012;-76
2022/04/23 09:41:34;;;;;;;4.50;3.70;;;;;;;15.39;54.32;98743.70;1755798;80;20233;-75
2022/04/23 09:44:09;;;;;;;5.87;4.15;;;;;;;15.49;53.49;98745.84;1767575;80;21079;-73
2022/04/23 09:46:47;;;;;;;5.37;3.90;;;;;;;15.52;53.53;98751.25;1747832;81;21063;-74
2022/04/23 09:49:21;;;;;;;10.60;3.33;;;;;;;15.62;53.29;98741.48;1746873;81;21480;-71
2022/04/23 09:52:09;;;;;;;4.87;3.87;;;;;;;15.74;53.42;98739.08;1750221;81;21035;-75
2022/04/23 09:54:37;;;;;;;7.58;3.20;;;;;;;15.87;53.29;98735.48;1754497;81;21479;-74
2022/04/23 09:57:07;;;;;;;6.92;3.33;;;;;;;15.93;52.30;98734.00;1711238;82;21040;-75
2022/04/23 09:59:34;;;;;;;6.40;3.47;;;;;;;15.90;51.92;98738.92;1748140;81;21134;-73
2022/04/23 10:02:01;;;;;;;4.92;2.77;;;;;;;15.84;51.53;98737.63;1715751;83;21016;-74
2022/04/23 10:04:30;;;;;;;5.75;4.10;;;;;;;15.80;51.10;98727.85;1729912;81;21052;-73
2022/04/23 10:07:00;;;;;;;8.05;3.40;;;;;;;15.74;51.01;98733.53;1747677;81;21079;-76
2022/04/23 10:09:29;;;;;;;4.45;2.90;;;;;;;15.70;51.01;98721.78;1717354;83;21484;-73
2022/04/23 10:12:04;;;;;;;6.55;2.77;;;;;;;15.77;51.24;98724.44;1732998;82;21090;-75
2022/04/23 10:14:53;;;;;;;3.95;3.30;;;;;;;15.87;51.14;98709.91;1763084;80;21590;-74
2022/04/23 10:17:22;;;;;;;4.45;3.27;;;;;;;16.04;50.55;98707.77;1723148;82;21565;-75
2022/04/23 10:19:52;;;;;;;6.05;4.05;;;;;;;16.21;50.62;98717.51;1709270;81;21005;-76
2022/04/23 10:22:29;;;;;;;11.95;3.77;;;;;;;16.40;50.47;98704.63;1704050;82;21007;-72
2022/04/23 10:25:13;;;;;;;5.50;3.25;;;;;;;16.62;50.79;98698.71;1714692;82;22042;-75
2022/04/23 10:27:44;;;;;;;4.30;3.08;;;;;;;16.87;49.02;98705.10;1683646;82;21115;-76
2022/04/23 10:30:12;;;;;;;4.95;3.27;;;;;;;17.01;48.35;98696.09;1713971;82;21120;-74
2022/04/23 10:32:40;;;;;;;7.70;3.27;;;;;;;17.15;48.19;98689.89;1686773;83;21058;-73
2022/04/23 10:35:25;;;;;;;4.28;2.80;;;;;;;17.35;46.81;98695.81;1717262;83;21517;-74
2022/04/23 10:37:53;;;;;;;4.75;2.50;;;;;;;17.46;45.13;98691.11;1768159;80;20970;-75
2022/04/23 10:40:26;;;;;;;3.80;2.67;;;;;;;17.42;44.38;98680.53;1768040;80;21025;-72
2022/04/23 10:43:12;;;;;;;3.42;2.40;;;;;;;17.42;44.89;98679.75;1763690;80;21053;-74
2022/04/23 10:45:41;;;;;;;3.35;2.60;;;;;;;17.51;44.99;98678.22;1755546;80;21025;-76
2022/04/23 10:48:27;;;;;;;6.15;2.50;;;;;;;17.58;44.64;98688.60;1761912;79;21080;-75
2022/04/23 10:51:06;;;;;;;9.88;2.55;;;;;;;17.67;44.04;98676.31;1762948;79;20990;-76
2022/04/23 10:53:43;;;;;;;3.90;2.55;;;;;;;17.71;43.34;98670.95;1766767;79;21032;-74
2022/04/23 10:56:19;;;;;;;3.50;2.52;;;;;;;17.72;43.61;98668.98;1770631;80;21060;-77
2022/04/23 10:58:50;;;;;;;2.80;2.15;;;;;;;17.75;43.44;98672.38;1773594;80;21593;-74
2022/04/23 11:01:31;;;;;;;6.12;2.40;;;;;;;17.80;43.26;98667.02;1771118;80;21039;-74
2022/04/23 11:04:10;;;;;;;3.40;2.40;;;;;;;17.71;42.28;98659.81;1764882;80;21004;-78
2022/04/23 11:12:33;;;;;;;2.87;2.27;;;;;;;17.53;43.51;98651.37;1716013;82;21057;-77
2022/04/23 11:15:06;;;;;;;4.72;2.55;;;;;;;17.50;43.24;98654.94;1715838;83;21566;-76
2022/04/23 11:17:55;;;;;;;3.83;2.10;;;;;;;17.54;43.28;98664.71;1736372;81;21005;-72
2022/04/23 11:20:27;;;;;;;5.62;2.55;;;;;;;17.55;42.72;98648.20;1742382;81;21000;-76
2022/04/23 11:23:00;;;;;;;6.50;2.77;;;;;;;17.55;42.54;98644.83;1735947;82;20989;-74
2022/04/23 11:25:30;;;;;;;6.62;2.75;;;;;;;17.61;43.36;98654.40;1732740;82;21056;-74
2022/04/23 11:28:16;;;;;;;4.33;2.87;;;;;;;17.60;43.04;98647.83;1738868;80;20997;-75
2022/04/23 11:30:43;;;;;;;5.40;2.80;;;;;;;17.55;42.56;98649.59;1730194;82;21033;-75
2022/04/23 11:33:12;;;;;;;5.15;2.35;;;;;;;17.48;42.60;98641.99;1757576;80;21020;-71
2022/04/23 11:35:41;;;;;;;8.35;2.67;;;;;;;17.34;41.59;98645.48;1744264;81;21004;-76
2022/04/23 11:38:52;;;;;;;5.20;2.40;;;;;;;17.18;41.88;98640.99;1750662;80;21053;-74
2022/04/23 11:41:57;;;;;;;8.30;2.42;;;;;;;17.08;41.98;98634.14;1590238;82;21550;-77
2022/04/23 11:44:45;;;;;;;6.78;2.50;;;;;;;17.09;43.10;98627.98;1728904;82;21016;-75
2022/04/23 11:47:15;;;;;;;6.97;2.33;;;;;;;17.12;42.72;98620.28;1736462;82;21502;-74
2022/04/23 11:49:46;;;;;;;7.97;2.33;;;;;;;17.06;42.56;98623.98;1703966;82;21075;-74
2022/04/23 11:52:14;;;;;;;3.52;2.15;;;;;;;17.03;42.59;98614.44;1744687;80;21660;-72
2022/04/23 11:55:11;;;;;;;3.50;1.80;;;;;;;17.11;42.98;98614.52;1738898;81;21367;-72
2022/04/23 11:57:39;;;;;;;3.05;2.00;;;;;;;17.27;43.89;98610.85;1735039;82;21022;-79
2022/04/23 12:00:10;;;;;;;2.60;2.10;;;;;;;17.61;44.04;98600.67;1716050;81;20984;-75
2022/04/23 12:02:41;;;;;;;4.50;1.98;;;;;;;17.94;43.47;98595.25;1743442;80;21544;-79
2022/04/23 12:05:12;;;;;;;8.83;2.77;;;;;;;18.23;42.95;98598.95;1660169;82;21116;-76
2022/04/23 12:07:40;;;;;;;3.52;2.45;;;;;;;18.36;42.17;98600.76;1749948;80;21036;-75
2022/04/23 12:10:08;;;;;;;4.97;2.00;;;;;;;18.31;41.78;98596.16;1708739;83;21035;-73
2022/04/23 12:12:35;;;;;;;6.72;2.02;;;;;;;18.17;41.71;98599.73;1737430;82;21011;-76
2022/04/23 12:15:08;;;;;;;3.95;2.12;;;;;;;18.06;41.69;98589.91;1747689;80;21044;-74
2022/04/23 12:17:49;;;;;;;2.30;2.10;;;;;;;18.09;42.66;98587.13;1712028;83;21016;-83
2022/04/23 12:20:22;;;;;;;3.65;1.70;;;;;;;18.22;42.00;98588.98;1740936;82;20975;-76